Time;durP1;ratioP1;P1;durP2;ratioP2;P2;SDS_P1;SDS_P2;PMS_P1;PMS_P2;Temp;Humidity;BMP_temperature;BMP_pressure;BME280_temperature;BME280_humidity;BME280_pressure;Samples;Min_cycle;Max_cycle;Signal;HPM_P1;HPM_P2
2022/12/29 00:01:55;;;;;;;3.03;1.40;;;;;;;;;;5053897;28;20181;-72
2022/12/29 00:04:21;;;;;;;2.43;1.40;;;;;;;;;;5055404;28;20181;-71
2022/12/29 00:06:48;;;;;;;1.47;1.33;;;;;;;;;;5054888;28;20277;-69
2022/12/29 00:09:14;;;;;;;1.40;1.30;;;;;;;;;;5053645;28;20183;-71
2022/12/29 00:11:40;;;;;;;1.37;1.27;;;;;;;;;;5055188;28;20181;-71
2022/12/29 00:16:53;;;;;;;2.03;1.73;;;;;;;;;;5055003;28;20256;-70
2022/12/29 00:36:01;;;;;;;1.33;1.23;;;;;;;;;;5055032;28;20275;-69
2022/12/29 00:44:05;;;;;;;2.37;1.20;;;;;;;;;;5054657;28;20228;-70
2022/12/29 00:46:31;;;;;;;1.77;1.57;;;;;;;;;;5054565;28;20672;-71
2022/12/29 00:51:42;;;;;;;2.17;1.30;;;;;;;;;;5054563;28;20181;-71
2022/12/29 00:54:08;;;;;;;1.43;1.27;;;;;;;;;;5054063;28;20175;-71
2022/12/29 00:56:34;;;;;;;1.37;1.27;;;;;;;;;;5052752;28;20228;-71
2022/12/29 00:59:00;;;;;;;1.60;1.33;;;;;;;;;;5053006;28;20210;-70
2022/12/29 01:01:26;;;;;;;1.60;1.50;;;;;;;;;;5052935;28;20187;-70
2022/12/29 01:03:52;;;;;;;1.30;1.20;;;;;;;;;;5054174;28;20269;-70
2022/12/29 01:06:18;;;;;;;2.17;1.70;;;;;;;;;;5052846;28;20230;-70
2022/12/29 01:08:44;;;;;;;1.67;1.57;;;;;;;;;;5054391;28;20240;-71
2022/12/29 01:11:11;;;;;;;1.47;1.37;;;;;;;;;;5054634;28;20174;-71
2022/12/29 01:13:38;;;;;;;1.70;1.40;;;;;;;;;;5054527;28;20179;-71
2022/12/29 01:16:04;;;;;;;1.40;1.30;;;;;;;;;;5052662;28;20716;-71
2022/12/29 01:18:31;;;;;;;1.30;1.20;;;;;;;;;;5053749;28;20289;-70
2022/12/29 01:21:04;;;;;;;1.30;1.20;;;;;;;;;;5052758;28;20204;-71
2022/12/29 01:23:31;;;;;;;1.20;1.10;;;;;;;;;;5054462;28;20170;-71
2022/12/29 01:25:57;;;;;;;1.70;1.20;;;;;;;;;;5054001;28;20229;-71
2022/12/29 01:28:24;;;;;;;1.33;1.20;;;;;;;;;;5054176;28;20206;-70
2022/12/29 01:30:50;;;;;;;1.10;1.10;;;;;;;;;;5053862;28;20266;-71
2022/12/29 01:33:16;;;;;;;1.10;1.00;;;;;;;;;;5058987;28;20676;-70
2022/12/29 01:35:42;;;;;;;1.00;1.00;;;;;;;;;;5066332;28;20705;-70
2022/12/29 01:38:08;;;;;;;1.00;1.00;;;;;;;;;;5063303;28;20688;-72
2022/12/29 01:40:34;;;;;;;1.00;1.00;;;;;;;;;;5054571;28;20201;-72
2022/12/29 01:43:00;;;;;;;1.10;1.10;;;;;;;;;;5061939;28;20186;-71
2022/12/29 01:45:26;;;;;;;1.10;1.00;;;;;;;;;;5059476;28;20202;-71
2022/12/29 01:47:52;;;;;;;0.90;0.90;;;;;;;;;;5053716;28;20209;-71
2022/12/29 01:50:38;;;;;;;1.03;1.00;;;;;;;;;;5053612;28;20186;-71
2022/12/29 01:53:05;;;;;;;1.00;1.00;;;;;;;;;;5052062;28;20191;-70
2022/12/29 01:55:33;;;;;;;1.03;1.03;;;;;;;;;;5053359;28;20216;-72
2022/12/29 01:58:01;;;;;;;1.50;1.00;;;;;;;;;;5053465;28;20205;-72
2022/12/29 02:00:27;;;;;;;1.03;1.03;;;;;;;;;;5053814;28;20592;-72
2022/12/29 02:02:54;;;;;;;1.03;1.00;;;;;;;;;;5053863;28;20210;-72
2022/12/29 02:05:26;;;;;;;1.53;1.10;;;;;;;;;;5055388;28;20194;-72
2022/12/29 02:07:53;;;;;;;0.90;0.90;;;;;;;;;;5057522;28;20232;-73
2022/12/29 02:10:25;;;;;;;2.00;1.63;;;;;;;;;;5057023;28;20179;-73
2022/12/29 02:12:51;;;;;;;1.10;1.10;;;;;;;;;;5055850;28;20270;-72
2022/12/29 02:15:17;;;;;;;1.50;1.07;;;;;;;;;;5057077;28;20206;-72
2022/12/29 02:18:02;;;;;;;1.90;1.40;;;;;;;;;;5056238;28;20393;-73
2022/12/29 02:20:46;;;;;;;1.30;1.20;;;;;;;;;;5057120;28;20171;-73
2022/12/29 02:23:12;;;;;;;0.93;0.93;;;;;;;;;;5057157;28;20171;-73
2022/12/29 02:25:44;;;;;;;1.17;1.07;;;;;;;;;;5055841;28;20209;-73
2022/12/29 02:28:29;;;;;;;1.90;1.27;;;;;;;;;;5057404;28;20642;-73
2022/12/29 02:31:00;;;;;;;1.63;1.30;;;;;;;;;;5056520;28;20178;-73
2022/12/29 02:33:49;;;;;;;1.77;1.20;;;;;;;;;;5059741;28;20171;-73
2022/12/29 02:36:27;;;;;;;1.30;1.20;;;;;;;;;;5075467;28;20202;-72
2022/12/29 02:39:02;;;;;;;1.70;1.00;;;;;;;;;;5076296;28;20360;-72
2022/12/29 02:41:39;;;;;;;2.23;1.17;;;;;;;;;;5075561;28;20226;-73
2022/12/29 02:44:14;;;;;;;2.93;1.30;;;;;;;;;;5057323;28;20194;-73
2022/12/29 02:47:03;;;;;;;1.00;1.00;;;;;;;;;;5056506;28;20280;-72
2022/12/29 02:49:48;;;;;;;2.67;1.10;;;;;;;;;;5044786;28;20201;-73
2022/12/29 02:52:18;;;;;;;2.83;1.30;;;;;;;;;;5054975;28;20650;-73
2022/12/29 02:54:44;;;;;;;1.53;1.30;;;;;;;;;;5054612;28;20200;-70
2022/12/29 02:57:22;;;;;;;2.30;1.30;;;;;;;;;;5056510;28;20198;-70
2022/12/29 02:59:51;;;;;;;1.77;1.40;;;;;;;;;;5054945;28;20178;-70
2022/12/29 03:02:20;;;;;;;1.20;1.07;;;;;;;;;;5055991;28;20175;-73
2022/12/29 03:04:49;;;;;;;1.97;1.43;;;;;;;;;;5054822;28;20179;-71
2022/12/29 03:07:30;;;;;;;3.03;1.30;;;;;;;;;;5056167;28;20669;-71
2022/12/29 03:10:02;;;;;;;1.90;1.40;;;;;;;;;;5055886;28;20174;-71
2022/12/29 03:18:25;;;;;;;2.07;1.20;;;;;;;;;;5055744;28;20213;-71
2022/12/29 03:20:54;;;;;;;2.33;1.70;;;;;;;;;;5054426;28;20174;-71
2022/12/29 03:23:21;;;;;;;4.57;1.40;;;;;;;;;;5055532;28;20179;-72
2022/12/29 03:25:52;;;;;;;1.97;1.30;;;;;;;;;;5055402;28;20191;-72
2022/12/29 03:28:21;;;;;;;3.83;1.70;;;;;;;;;;5055455;28;20224;-72
2022/12/29 03:30:48;;;;;;;1.47;1.20;;;;;;;;;;5054377;28;20528;-72
2022/12/29 03:33:16;;;;;;;2.47;1.30;;;;;;;;;;5055527;28;20185;-72
2022/12/29 03:35:44;;;;;;;2.23;1.30;;;;;;;;;;5055208;28;20247;-72
2022/12/29 03:38:15;;;;;;;1.80;1.30;;;;;;;;;;5055268;28;20194;-72
2022/12/29 03:40:43;;;;;;;2.43;1.43;;;;;;;;;;5056320;28;20183;-72
2022/12/29 03:43:09;;;;;;;1.43;1.20;;;;;;;;;;5055488;28;20630;-72
2022/12/29 03:45:35;;;;;;;2.60;1.30;;;;;;;;;;5055071;28;20705;-72
2022/12/29 03:48:01;;;;;;;2.23;1.43;;;;;;;;;;5054040;28;20178;-71
2022/12/29 03:50:27;;;;;;;1.40;1.30;;;;;;;;;;5055037;28;20257;-71
2022/12/29 03:52:53;;;;;;;2.78;1.33;;;;;;;;;;5053506;28;20907;-72
2022/12/29 03:55:19;;;;;;;2.50;1.40;;;;;;;;;;5053586;28;20225;-72
2022/12/29 03:57:45;;;;;;;1.57;1.10;;;;;;;;;;5053562;28;20199;-71
2022/12/29 04:00:11;;;;;;;1.70;1.30;;;;;;;;;;5054796;28;20258;-71
2022/12/29 04:02:37;;;;;;;1.20;1.10;;;;;;;;;;5054893;28;20197;-71
2022/12/29 04:05:03;;;;;;;2.37;1.20;;;;;;;;;;5054965;28;20666;-71
2022/12/29 04:07:29;;;;;;;2.43;1.20;;;;;;;;;;5054717;28;20611;-71
2022/12/29 04:09:55;;;;;;;2.30;1.20;;;;;;;;;;5055062;28;20206;-71
2022/12/29 04:12:21;;;;;;;4.33;1.10;;;;;;;;;;5054551;28;20646;-70
2022/12/29 04:14:47;;;;;;;1.63;1.13;;;;;;;;;;5053343;28;20202;-71
2022/12/29 04:17:13;;;;;;;1.50;1.10;;;;;;;;;;5053194;28;20244;-72
2022/12/29 04:19:39;;;;;;;1.33;1.20;;;;;;;;;;5054462;28;20249;-72
2022/12/29 04:22:05;;;;;;;1.50;1.30;;;;;;;;;;5054839;28;20569;-72
2022/12/29 04:24:31;;;;;;;2.20;1.30;;;;;;;;;;5053142;28;20175;-71
2022/12/29 04:26:57;;;;;;;1.27;1.10;;;;;;;;;;5053533;28;20191;-72
2022/12/29 04:29:23;;;;;;;1.93;1.40;;;;;;;;;;5054279;28;20208;-72
2022/12/29 04:31:49;;;;;;;1.90;1.20;;;;;;;;;;5053108;28;20182;-72
2022/12/29 04:34:15;;;;;;;3.57;1.10;;;;;;;;;;5054413;28;20727;-72
2022/12/29 04:36:40;;;;;;;1.80;1.30;;;;;;;;;;5054234;28;20241;-72
2022/12/29 04:39:07;;;;;;;1.43;1.10;;;;;;;;;;5052829;28;20300;-71
2022/12/29 04:41:33;;;;;;;3.20;1.10;;;;;;;;;;5054182;28;20197;-72
2022/12/29 04:43:59;;;;;;;4.10;1.47;;;;;;;;;;5054681;28;20174;-72
2022/12/29 04:46:25;;;;;;;1.75;1.20;;;;;;;;;;5053276;28;20406;-72
2022/12/29 04:48:51;;;;;;;1.90;1.27;;;;;;;;;;5054078;28;20179;-72
2022/12/29 04:51:16;;;;;;;1.10;1.00;;;;;;;;;;5054250;28;20185;-72
2022/12/29 04:53:42;;;;;;;2.37;1.17;;;;;;;;;;5054032;28;20233;-72
2022/12/29 04:56:09;;;;;;;1.30;1.07;;;;;;;;;;5052406;28;20244;-72
2022/12/29 04:58:34;;;;;;;1.93;1.37;;;;;;;;;;5052466;28;20209;-72
2022/12/29 05:01:01;;;;;;;1.30;1.20;;;;;;;;;;5052311;28;20403;-72
2022/12/29 05:03:26;;;;;;;2.23;1.10;;;;;;;;;;5053650;28;20177;-72
2022/12/29 05:05:56;;;;;;;3.00;1.43;;;;;;;;;;5053691;28;20194;-72
2022/12/29 05:08:23;;;;;;;1.90;1.40;;;;;;;;;;5053680;28;20529;-72
2022/12/29 05:10:50;;;;;;;1.73;1.10;;;;;;;;;;5053650;28;20185;-72
2022/12/29 05:13:16;;;;;;;4.53;1.20;;;;;;;;;;5053587;28;20660;-72
2022/12/29 05:15:46;;;;;;;2.03;1.30;;;;;;;;;;5053583;28;20281;-71
2022/12/29 05:18:12;;;;;;;1.83;1.10;;;;;;;;;;5052276;28;20218;-72
2022/12/29 05:20:38;;;;;;;1.90;1.23;;;;;;;;;;5052125;28;20708;-72
2022/12/29 05:23:04;;;;;;;1.93;1.23;;;;;;;;;;5052192;28;20182;-71
2022/12/29 05:25:30;;;;;;;1.60;1.13;;;;;;;;;;5051979;28;20688;-72
2022/12/29 05:27:56;;;;;;;1.17;1.07;;;;;;;;;;5056477;28;20646;-72
2022/12/29 05:30:22;;;;;;;3.60;1.40;;;;;;;;;;5064607;28;20186;-72
2022/12/29 05:32:48;;;;;;;2.47;1.20;;;;;;;;;;5064390;28;20178;-72
2022/12/29 05:35:13;;;;;;;6.27;1.70;;;;;;;;;;5064158;28;20202;-72
2022/12/29 05:37:39;;;;;;;3.93;1.43;;;;;;;;;;5063442;28;20202;-72
2022/12/29 05:40:06;;;;;;;2.37;1.60;;;;;;;;;;5060979;28;20186;-73
2022/12/29 05:42:32;;;;;;;3.03;1.30;;;;;;;;;;5053295;28;20724;-73
2022/12/29 05:44:58;;;;;;;2.70;1.27;;;;;;;;;;5051749;28;20208;-73
2022/12/29 05:47:24;;;;;;;2.70;1.33;;;;;;;;;;5053496;28;20380;-73
2022/12/29 05:49:50;;;;;;;2.93;1.60;;;;;;;;;;5053173;28;20290;-70
2022/12/29 05:52:16;;;;;;;3.80;1.43;;;;;;;;;;5052011;28;20190;-72
2022/12/29 05:54:42;;;;;;;2.27;1.20;;;;;;;;;;5052991;28;20185;-73
2022/12/29 05:57:08;;;;;;;5.13;1.50;;;;;;;;;;5053399;28;20202;-73
2022/12/29 05:59:34;;;;;;;4.67;1.60;;;;;;;;;;5053094;28;20181;-72
2022/12/29 06:02:00;;;;;;;4.47;1.30;;;;;;;;;;5053017;28;20171;-73
2022/12/29 06:04:26;;;;;;;4.00;1.50;;;;;;;;;;5051816;28;20183;-72
2022/12/29 06:06:52;;;;;;;2.03;1.20;;;;;;;;;;5052887;28;20218;-72
2022/12/29 06:09:18;;;;;;;3.37;1.57;;;;;;;;;;5052967;28;20179;-72
2022/12/29 06:11:44;;;;;;;2.30;1.50;;;;;;;;;;5051665;28;20178;-72
2022/12/29 06:14:10;;;;;;;1.53;1.23;;;;;;;;;;5053042;28;20289;-72
2022/12/29 06:16:36;;;;;;;2.97;1.43;;;;;;;;;;5051583;28;20233;-72
2022/12/29 06:19:02;;;;;;;2.93;1.70;;;;;;;;;;5052697;28;20237;-73
2022/12/29 06:21:28;;;;;;;1.67;1.30;;;;;;;;;;5053111;28;20171;-72
2022/12/29 06:23:54;;;;;;;1.80;1.23;;;;;;;;;;5051621;28;20652;-73
2022/12/29 06:26:20;;;;;;;3.50;1.37;;;;;;;;;;5051513;28;20259;-72
2022/12/29 06:28:46;;;;;;;1.97;1.37;;;;;;;;;;5051537;28;20700;-72
2022/12/29 06:31:12;;;;;;;3.50;1.50;;;;;;;;;;5052968;28;20547;-72
2022/12/29 06:33:38;;;;;;;2.73;1.30;;;;;;;;;;5051449;28;20187;-72
2022/12/29 06:36:04;;;;;;;3.67;1.60;;;;;;;;;;5053154;28;20213;-73
2022/12/29 06:38:30;;;;;;;5.13;1.50;;;;;;;;;;5052961;28;20206;-72
2022/12/29 06:40:56;;;;;;;3.83;1.87;;;;;;;;;;5051793;28;20178;-73
2022/12/29 06:43:22;;;;;;;4.53;1.40;;;;;;;;;;5052667;28;20657;-73
2022/12/29 06:45:48;;;;;;;2.40;1.30;;;;;;;;;;5051379;28;20685;-73
2022/12/29 06:48:14;;;;;;;4.03;1.50;;;;;;;;;;5051270;28;20646;-72
2022/12/29 06:50:40;;;;;;;4.13;1.90;;;;;;;;;;5053707;28;20609;-72
2022/12/29 06:53:06;;;;;;;3.73;1.67;;;;;;;;;;5056552;28;20210;-72
2022/12/29 06:55:32;;;;;;;2.73;1.47;;;;;;;;;;5056143;28;20214;-72
2022/12/29 06:57:58;;;;;;;2.10;1.30;;;;;;;;;;5056470;28;20536;-73
2022/12/29 07:00:25;;;;;;;5.00;1.27;;;;;;;;;;5055744;28;20261;-72
2022/12/29 07:02:51;;;;;;;3.27;1.30;;;;;;;;;;5056417;28;20206;-72
2022/12/29 07:05:17;;;;;;;3.70;1.50;;;;;;;;;;5075059;28;20201;-72
2022/12/29 07:07:43;;;;;;;1.70;1.10;;;;;;;;;;5071970;28;20178;-72
2022/12/29 07:10:10;;;;;;;1.63;1.30;;;;;;;;;;5072850;28;20202;-72
2022/12/29 07:12:36;;;;;;;7.30;1.63;;;;;;;;;;5072061;28;20182;-72
2022/12/29 07:15:02;;;;;;;5.47;1.90;;;;;;;;;;5070535;28;20201;-72
2022/12/29 07:17:27;;;;;;;5.00;1.73;;;;;;;;;;5070932;28;20202;-72
2022/12/29 07:19:53;;;;;;;4.47;1.80;;;;;;;;;;5068909;28;20210;-72
2022/12/29 07:22:19;;;;;;;3.27;1.60;;;;;;;;;;5057013;28;20228;-73
2022/12/29 07:24:45;;;;;;;3.47;1.33;;;;;;;;;;5056161;28;20224;-72
2022/12/29 07:27:11;;;;;;;3.27;1.63;;;;;;;;;;5057557;28;20182;-73
2022/12/29 07:29:38;;;;;;;8.17;1.73;;;;;;;;;;5057272;28;20186;-73
2022/12/29 07:32:04;;;;;;;4.47;1.50;;;;;;;;;;5057191;28;20178;-72
2022/12/29 07:34:30;;;;;;;2.17;1.40;;;;;;;;;;5056459;28;20179;-72
2022/12/29 07:36:56;;;;;;;5.03;1.80;;;;;;;;;;5055081;28;20339;-73
2022/12/29 07:39:22;;;;;;;4.77;1.67;;;;;;;;;;5056868;28;20197;-72
2022/12/29 07:41:48;;;;;;;4.33;1.73;;;;;;;;;;5056853;28;20181;-72
2022/12/29 07:44:13;;;;;;;4.60;1.80;;;;;;;;;;5056590;28;20175;-73
2022/12/29 07:46:39;;;;;;;3.63;1.60;;;;;;;;;;5056106;28;20199;-72
2022/12/29 07:49:06;;;;;;;2.60;1.60;;;;;;;;;;5056271;28;20179;-72
2022/12/29 07:51:32;;;;;;;5.07;2.20;;;;;;;;;;5056063;28;20244;-73
2022/12/29 07:54:00;;;;;;;6.10;2.00;;;;;;;;;;5055376;28;20646;-72
2022/12/29 07:56:26;;;;;;;5.90;1.80;;;;;;;;;;5055723;28;20225;-73
2022/12/29 07:58:52;;;;;;;6.37;2.03;;;;;;;;;;5056082;28;20206;-73
2022/12/29 08:01:18;;;;;;;3.50;1.57;;;;;;;;;;5056086;28;20200;-72
2022/12/29 08:03:44;;;;;;;5.43;1.80;;;;;;;;;;5055474;28;20664;-73
2022/12/29 08:06:10;;;;;;;4.23;1.97;;;;;;;;;;5054301;28;20205;-72
2022/12/29 08:08:37;;;;;;;2.97;1.43;;;;;;;;;;5055933;28;20185;-73
2022/12/29 08:11:03;;;;;;;6.27;1.47;;;;;;;;;;5056859;28;20194;-72
2022/12/29 08:13:29;;;;;;;6.30;1.87;;;;;;;;;;5055662;28;20182;-72
2022/12/29 08:15:54;;;;;;;5.33;1.93;;;;;;;;;;5057641;28;20206;-72
2022/12/29 08:18:20;;;;;;;10.13;3.97;;;;;;;;;;5065188;28;20198;-71
2022/12/29 08:20:46;;;;;;;14.23;7.47;;;;;;;;;;5070941;28;20233;-73
2022/12/29 08:23:12;;;;;;;5.43;2.37;;;;;;;;;;5070729;28;20171;-72
2022/12/29 08:25:38;;;;;;;5.27;2.13;;;;;;;;;;5068455;28;20200;-71
2022/12/29 08:28:04;;;;;;;4.90;1.90;;;;;;;;;;5054779;28;20260;-72
2022/12/29 08:30:30;;;;;;;3.77;1.77;;;;;;;;;;5056019;28;20204;-72
2022/12/29 08:32:56;;;;;;;5.43;2.00;;;;;;;;;;5055753;28;20181;-72
2022/12/29 08:35:22;;;;;;;5.60;1.80;;;;;;;;;;5054994;28;20202;-72
2022/12/29 08:37:48;;;;;;;5.17;1.93;;;;;;;;;;5053016;28;20206;-72
2022/12/29 08:40:14;;;;;;;6.60;2.20;;;;;;;;;;5053291;28;20261;-73
2022/12/29 08:42:40;;;;;;;7.73;1.97;;;;;;;;;;5053026;28;20573;-72
2022/12/29 08:45:08;;;;;;;9.07;2.10;;;;;;;;;;5052841;28;20248;-72
2022/12/29 08:47:34;;;;;;;6.17;1.67;;;;;;;;;;5054065;28;20178;-72
2022/12/29 08:50:00;;;;;;;4.53;2.10;;;;;;;;;;5054139;28;20247;-72
2022/12/29 08:52:26;;;;;;;3.80;1.97;;;;;;;;;;5054225;28;20567;-72
2022/12/29 08:54:52;;;;;;;3.37;1.60;;;;;;;;;;5052555;28;20582;-72
2022/12/29 08:57:18;;;;;;;9.30;2.20;;;;;;;;;;5052665;28;20206;-72
2022/12/29 08:59:44;;;;;;;4.47;2.10;;;;;;;;;;5052776;28;20190;-72
2022/12/29 09:02:11;;;;;;;6.17;2.13;;;;;;;;;;5052494;28;20170;-72
2022/12/29 09:04:37;;;;;;;7.07;2.30;;;;;;;;;;5052596;28;20665;-72
2022/12/29 09:07:05;;;;;;;9.67;2.60;;;;;;;;;;5053882;28;20198;-72
2022/12/29 09:09:31;;;;;;;7.03;2.00;;;;;;;;;;5053717;28;20653;-71
2022/12/29 09:11:57;;;;;;;6.57;1.90;;;;;;;;;;5053756;28;20179;-72
2022/12/29 09:14:23;;;;;;;5.33;2.20;;;;;;;;;;5053491;28;20257;-72
2022/12/29 09:19:36;;;;;;;9.07;2.10;;;;;;;;;;5054613;28;20616;-74
2022/12/29 09:22:02;;;;;;;4.30;1.97;;;;;;;;;;5054109;28;20191;-74
2022/12/29 09:24:28;;;;;;;7.53;2.27;;;;;;;;;;5053953;28;20173;-74
2022/12/29 09:26:54;;;;;;;2.60;1.60;;;;;;;;;;5053010;28;20210;-74
2022/12/29 09:29:20;;;;;;;6.87;2.00;;;;;;;;;;5054464;28;20182;-74
2022/12/29 09:31:46;;;;;;;7.00;1.80;;;;;;;;;;5054281;28;20236;-74
2022/12/29 09:34:12;;;;;;;6.67;2.17;;;;;;;;;;5054339;28;20182;-74
2022/12/29 09:36:38;;;;;;;4.77;2.17;;;;;;;;;;5052861;28;20202;-74
2022/12/29 09:39:04;;;;;;;5.10;2.00;;;;;;;;;;5052951;28;20198;-73
2022/12/29 09:41:32;;;;;;;3.03;1.57;;;;;;;;;;5054916;28;20173;-74
2022/12/29 09:44:21;;;;;;;6.40;2.07;;;;;;;;;;5053003;28;20273;-73
2022/12/29 09:46:49;;;;;;;4.80;2.00;;;;;;;;;;5054017;28;20289;-74
2022/12/29 09:49:29;;;;;;;7.67;2.50;;;;;;;;;;5053381;28;20178;-73
2022/12/29 09:51:57;;;;;;;7.20;2.27;;;;;;;;;;5052286;28;20189;-74
2022/12/29 09:54:29;;;;;;;9.20;3.07;;;;;;;;;;5053560;28;20205;-74
2022/12/29 09:56:56;;;;;;;7.60;2.37;;;;;;;;;;5052909;28;20221;-74
2022/12/29 09:59:25;;;;;;;12.03;2.77;;;;;;;;;;5053446;28;20646;-74
2022/12/29 10:02:05;;;;;;;7.53;2.33;;;;;;;;;;5053670;28;20642;-74
2022/12/29 10:04:30;;;;;;;8.90;2.40;;;;;;;;;;5052385;28;20625;-74
2022/12/29 10:07:11;;;;;;;6.23;2.63;;;;;;;;;;5052232;28;20212;-74
2022/12/29 10:09:37;;;;;;;5.03;2.43;;;;;;;;;;5052047;28;20170;-74
2022/12/29 10:12:30;;;;;;;5.73;1.83;;;;;;;;;;5053674;28;20229;-74
2022/12/29 10:14:59;;;;;;;9.17;2.60;;;;;;;;;;5053513;28;20154;-74
2022/12/29 10:17:43;;;;;;;11.57;2.47;;;;;;;;;;5053147;28;20293;-74
2022/12/29 10:20:18;;;;;;;10.10;2.57;;;;;;;;;;5051987;28;20232;-74
2022/12/29 10:23:02;;;;;;;6.00;2.13;;;;;;;;;;5053309;28;20166;-74
2022/12/29 10:25:31;;;;;;;6.77;2.20;;;;;;;;;;5054118;28;20577;-74
2022/12/29 10:27:59;;;;;;;5.93;2.13;;;;;;;;;;5055717;28;20182;-74
2022/12/29 10:30:25;;;;;;;6.80;2.33;;;;;;;;;;5055719;28;20277;-74
2022/12/29 10:32:59;;;;;;;7.13;2.70;;;;;;;;;;5055655;28;20205;-74
2022/12/29 10:35:26;;;;;;;6.87;2.43;;;;;;;;;;5057271;28;20222;-74
2022/12/29 10:38:10;;;;;;;5.33;2.70;;;;;;;;;;5056830;28;20202;-74
2022/12/29 10:40:57;;;;;;;7.33;3.50;;;;;;;;;;5055762;28;20185;-74
2022/12/29 10:43:25;;;;;;;9.30;2.50;;;;;;;;;;5056735;28;20253;-73
2022/12/29 10:45:53;;;;;;;3.87;2.00;;;;;;;;;;5056889;28;20616;-73
2022/12/29 10:48:22;;;;;;;9.70;2.47;;;;;;;;;;5056879;28;20258;-73
2022/12/29 10:50:48;;;;;;;8.90;2.40;;;;;;;;;;5055300;28;20277;-73
2022/12/29 10:53:23;;;;;;;8.27;2.13;;;;;;;;;;5056332;28;20224;-73
2022/12/29 10:55:50;;;;;;;7.10;2.57;;;;;;;;;;5056261;28;20213;-73
2022/12/29 10:58:16;;;;;;;6.07;1.87;;;;;;;;;;5056386;28;20202;-74
2022/12/29 11:00:43;;;;;;;8.57;2.57;;;;;;;;;;5055114;28;20207;-73
2022/12/29 11:03:35;;;;;;;3.83;1.67;;;;;;;;;;5055138;28;20273;-73
2022/12/29 11:06:13;;;;;;;7.57;1.80;;;;;;;;;;5054935;28;20229;-73
2022/12/29 11:08:41;;;;;;;6.27;1.90;;;;;;;;;;5056156;28;20178;-73
2022/12/29 11:11:09;;;;;;;10.10;2.60;;;;;;;;;;5056442;28;20175;-73
2022/12/29 11:13:46;;;;;;;13.10;2.60;;;;;;;;;;5056001;28;20178;-73
2022/12/29 11:16:12;;;;;;;9.17;2.50;;;;;;;;;;5054792;28;20250;-72
2022/12/29 11:18:39;;;;;;;4.67;1.80;;;;;;;;;;5056110;28;20209;-73
2022/12/29 11:21:26;;;;;;;6.87;2.20;;;;;;;;;;5056256;28;20255;-73
2022/12/29 11:23:58;;;;;;;7.80;1.93;;;;;;;;;;5054881;28;20183;-72
2022/12/29 11:26:24;;;;;;;8.83;2.60;;;;;;;;;;5055832;28;20198;-72
2022/12/29 11:29:08;;;;;;;8.40;2.90;;;;;;;;;;5054678;28;20281;-72
2022/12/29 11:31:45;;;;;;;9.07;2.63;;;;;;;;;;5054405;28;20186;-73
2022/12/29 11:34:18;;;;;;;7.17;2.13;;;;;;;;;;5054701;28;20276;-73
2022/12/29 11:36:44;;;;;;;9.27;2.53;;;;;;;;;;5053836;28;20206;-73
2022/12/29 11:39:23;;;;;;;7.20;2.20;;;;;;;;;;5054292;28;20198;-71
2022/12/29 11:41:52;;;;;;;7.53;2.40;;;;;;;;;;5054267;28;20181;-74
2022/12/29 11:44:18;;;;;;;16.80;9.50;;;;;;;;;;5056163;28;20189;-72
2022/12/29 11:46:46;;;;;;;16.47;9.07;;;;;;;;;;5054690;28;20269;-73
2022/12/29 11:49:19;;;;;;;10.93;4.90;;;;;;;;;;5055735;28;20544;-73
2022/12/29 11:51:47;;;;;;;8.97;4.20;;;;;;;;;;5055569;28;20543;-73
2022/12/29 11:54:19;;;;;;;6.73;3.27;;;;;;;;;;5055464;28;20206;-73
2022/12/29 11:56:45;;;;;;;11.33;3.00;;;;;;;;;;5055285;28;20229;-72
2022/12/29 11:59:29;;;;;;;8.37;3.10;;;;;;;;;;5054090;28;20213;-74
2022/12/29 12:01:56;;;;;;;8.87;2.50;;;;;;;;;;5054497;28;20185;-74
2022/12/29 12:04:24;;;;;;;6.47;2.13;;;;;;;;;;5054070;28;20182;-72
2022/12/29 12:07:10;;;;;;;9.93;2.60;;;;;;;;;;5055378;28;20268;-73
2022/12/29 12:09:41;;;;;;;8.80;2.43;;;;;;;;;;5045821;28;20285;-73
2022/12/29 12:12:10;;;;;;;6.07;1.97;;;;;;;;;;5055029;28;20570;-73
2022/12/29 12:14:43;;;;;;;7.17;2.47;;;;;;;;;;5053737;28;20182;-73
2022/12/29 12:17:15;;;;;;;11.30;2.27;;;;;;;;;;5054963;28;20209;-73
2022/12/29 12:19:56;;;;;;;6.13;2.47;;;;;;;;;;5054790;28;20205;-73
2022/12/29 12:22:36;;;;;;;6.93;2.20;;;;;;;;;;5054716;28;20179;-73
2022/12/29 12:25:12;;;;;;;8.73;3.20;;;;;;;;;;5054725;28;20174;-73
2022/12/29 12:27:40;;;;;;;8.63;2.70;;;;;;;;;;5054799;28;20287;-73
2022/12/29 12:30:18;;;;;;;4.23;1.70;;;;;;;;;;5054683;28;20185;-73
2022/12/29 12:32:49;;;;;;;5.43;2.37;;;;;;;;;;5054508;28;20660;-73
2022/12/29 12:35:20;;;;;;;6.23;2.37;;;;;;;;;;5054444;28;20209;-73
2022/12/29 12:37:57;;;;;;;10.50;2.93;;;;;;;;;;5054488;28;20205;-73
2022/12/29 12:40:26;;;;;;;8.57;2.27;;;;;;;;;;5053183;28;20641;-73
2022/12/29 12:42:52;;;;;;;5.53;2.10;;;;;;;;;;5054327;28;20201;-72
2022/12/29 12:45:36;;;;;;;9.50;2.53;;;;;;;;;;5054469;28;20666;-74
2022/12/29 12:48:11;;;;;;;7.37;2.33;;;;;;;;;;5052361;28;20182;-73
2022/12/29 12:50:56;;;;;;;6.23;2.00;;;;;;;;;;5054216;28;20176;-73
2022/12/29 12:53:28;;;;;;;7.23;2.40;;;;;;;;;;5054346;28;20175;-73
2022/12/29 12:56:09;;;;;;;5.03;2.30;;;;;;;;;;5052701;28;20295;-73
2022/12/29 12:58:59;;;;;;;11.63;2.20;;;;;;;;;;5052922;28;20205;-73
2022/12/29 13:01:25;;;;;;;6.80;2.60;;;;;;;;;;5026050;28;20197;-71
2022/12/29 13:03:53;;;;;;;7.63;2.60;;;;;;;;;;5054181;28;20638;-73
2022/12/29 13:06:38;;;;;;;5.67;2.20;;;;;;;;;;5053919;28;20277;-73
2022/12/29 13:09:15;;;;;;;5.93;2.60;;;;;;;;;;5054186;28;20549;-73
2022/12/29 13:11:41;;;;;;;5.87;2.23;;;;;;;;;;5054147;28;20169;-73
2022/12/29 13:14:07;;;;;;;8.47;2.40;;;;;;;;;;5052740;28;20182;-72
2022/12/29 13:16:57;;;;;;;7.03;2.00;;;;;;;;;;5084714;22;20222;-77
2022/12/29 13:19:33;;;;;;;10.30;3.10;;;;;;;;;;5041312;28;20279;-74
2022/12/29 13:21:59;;;;;;;6.87;2.20;;;;;;;;;;5055509;28;20179;-73
2022/12/29 13:24:48;;;;;;;6.07;2.77;;;;;;;;;;5055280;28;20523;-75
2022/12/29 13:27:26;;;;;;;10.90;3.17;;;;;;;;;;5026147;28;20218;-74
2022/12/29 13:29:52;;;;;;;8.13;2.43;;;;;;;;;;5052992;28;20166;-74
2022/12/29 13:32:33;;;;;;;6.50;2.23;;;;;;;;;;5053395;28;20626;-75
2022/12/29 13:35:17;;;;;;;9.73;2.50;;;;;;;;;;5054944;28;20210;-74
2022/12/29 13:37:48;;;;;;;8.77;2.40;;;;;;;;;;5053100;28;20210;-72
2022/12/29 13:40:17;;;;;;;5.50;2.00;;;;;;;;;;5052771;28;20175;-76
2022/12/29 13:42:43;;;;;;;6.30;2.53;;;;;;;;;;5052447;28;20196;-75
2022/12/29 13:45:15;;;;;;;7.70;2.43;;;;;;;;;;5052200;28;20258;-73
2022/12/29 13:47:45;;;;;;;7.73;2.33;;;;;;;;;;5052164;28;20566;-76
2022/12/29 13:50:21;;;;;;;6.53;2.50;;;;;;;;;;5053615;28;20212;-73
2022/12/29 13:52:58;;;;;;;11.37;3.40;;;;;;;;;;5052049;28;20178;-75
2022/12/29 13:55:27;;;;;;;6.33;2.53;;;;;;;;;;5053077;28;20170;-75
2022/12/29 13:58:12;;;;;;;7.50;2.50;;;;;;;;;;5052822;28;20738;-75
2022/12/29 14:00:46;;;;;;;7.73;2.67;;;;;;;;;;5055918;28;20244;-76
2022/12/29 14:03:18;;;;;;;10.90;2.67;;;;;;;;;;5058915;28;20487;-75
2022/12/29 14:05:46;;;;;;;8.97;2.53;;;;;;;;;;5058700;28;20174;-74
2022/12/29 14:08:17;;;;;;;8.67;2.30;;;;;;;;;;5057613;28;20202;-75
2022/12/29 14:10:51;;;;;;;6.90;2.70;;;;;;;;;;5057633;28;20175;-74
2022/12/29 14:13:21;;;;;;;6.07;2.07;;;;;;;;;;5056987;28;20196;-73
2022/12/29 14:15:52;;;;;;;8.73;2.77;;;;;;;;;;5055579;28;20182;-77
2022/12/29 14:18:19;;;;;;;8.60;2.00;;;;;;;;;;5056698;28;20215;-74
2022/12/29 14:20:54;;;;;;;8.87;4.20;;;;;;;;;;5057212;28;20186;-74
2022/12/29 14:23:26;;;;;;;9.80;3.70;;;;;;;;;;5055975;28;20551;-75
2022/12/29 14:25:56;;;;;;;8.33;2.63;;;;;;;;;;5056523;28;20242;-74
2022/12/29 14:28:27;;;;;;;6.13;2.83;;;;;;;;;;5057907;28;20183;-74
2022/12/29 14:30:55;;;;;;;6.33;2.23;;;;;;;;;;5056785;28;20178;-73
2022/12/29 14:33:21;;;;;;;8.37;2.60;;;;;;;;;;5056405;28;20228;-75
2022/12/29 14:35:51;;;;;;;8.93;2.87;;;;;;;;;;5056120;28;20182;-74
2022/12/29 14:38:19;;;;;;;8.53;2.43;;;;;;;;;;5057801;28;20202;-72
2022/12/29 14:40:46;;;;;;;6.33;2.00;;;;;;;;;;5060060;28;20171;-75
2022/12/29 14:43:20;;;;;;;7.10;2.00;;;;;;;;;;5060132;28;20170;-75
2022/12/29 14:45:53;;;;;;;12.37;4.20;;;;;;;;;;5061500;28;20167;-75
2022/12/29 14:48:29;;;;;;;27.43;12.40;;;;;;;;;;5058080;28;20203;-75
2022/12/29 14:50:55;;;;;;;9.80;3.97;;;;;;;;;;5058449;28;20155;-75
2022/12/29 14:53:40;;;;;;;39.50;18.17;;;;;;;;;;5055630;28;20190;-76
2022/12/29 14:56:09;;;;;;;4.50;2.23;;;;;;;;;;5056468;28;20231;-73
2022/12/29 14:58:44;;;;;;;7.87;2.70;;;;;;;;;;5055721;28;20213;-74
2022/12/29 15:01:26;;;;;;;8.03;2.43;;;;;;;;;;5056172;28;20178;-74
2022/12/29 15:03:55;;;;;;;5.57;2.07;;;;;;;;;;5057813;28;20206;-74
2022/12/29 15:06:23;;;;;;;9.97;2.63;;;;;;;;;;5057590;28;20194;-75
2022/12/29 15:08:55;;;;;;;8.90;2.53;;;;;;;;;;5059106;28;20184;-76
2022/12/29 15:11:22;;;;;;;5.73;1.93;;;;;;;;;;5058467;28;20206;-75
2022/12/29 15:13:49;;;;;;;6.83;1.93;;;;;;;;;;5060693;28;20185;-74
2022/12/29 15:16:24;;;;;;;6.67;2.03;;;;;;;;;;5060695;28;20179;-77
2022/12/29 15:18:50;;;;;;;5.90;2.30;;;;;;;;;;5059591;28;20228;-75
2022/12/29 15:21:17;;;;;;;5.50;2.17;;;;;;;;;;5058981;28;20178;-75
2022/12/29 15:23:44;;;;;;;8.63;3.00;;;;;;;;;;5057053;28;20597;-72
2022/12/29 15:26:10;;;;;;;10.00;2.77;;;;;;;;;;5058699;28;20174;-74
2022/12/29 15:28:40;;;;;;;9.30;2.80;;;;;;;;;;5057562;28;20186;-73
2022/12/29 15:31:11;;;;;;;4.73;2.20;;;;;;;;;;5060693;28;20179;-72
2022/12/29 15:33:39;;;;;;;5.67;2.50;;;;;;;;;;5058399;28;20170;-73